Time;durP1;ratioP1;P1;durP2;ratioP2;P2;SDS_P1;SDS_P2;PMS_P1;PMS_P2;Temp;Humidity;BMP_temperature;BMP_pressure;BME280_temperature;BME280_humidity;BME280_pressure;Samples;Min_cycle;Max_cycle;Signal;HPM_P1;HPM_P2
2021/09/22 00:01:05;;;;;;;2.65;1.77;;;;;;;9.27;100.00;101222.03;6338533;22;20025;-53
2021/09/22 00:04:09;;;;;;;3.80;1.52;;;;;;;9.24;100.00;101219.34;6338075;22;20038;-53
2021/09/22 00:07:11;;;;;;;27.38;2.65;;;;;;;9.21;100.00;101218.22;6338255;22;20355;-52
2021/09/22 00:10:17;;;;;;;4.93;1.77;;;;;;;9.22;100.00;101213.44;6338383;22;20390;-52
2021/09/22 00:13:23;;;;;;;1.75;1.65;;;;;;;9.19;100.00;101223.44;6338162;22;20071;-53
2021/09/22 00:16:26;;;;;;;6.57;2.03;;;;;;;9.15;100.00;101215.19;6318926;22;20103;-53
2021/09/22 00:19:29;;;;;;;2.38;1.83;;;;;;;9.13;100.00;101225.97;6338152;22;20025;-52
2021/09/22 00:22:32;;;;;;;4.60;1.48;;;;;;;9.12;100.00;101213.25;6337402;22;20511;-52
2021/09/22 00:25:36;;;;;;;4.32;1.90;;;;;;;9.27;100.00;101216.47;6337974;22;20026;-53
2021/09/22 00:28:39;;;;;;;1.92;0.93;;;;;;;9.37;100.00;101209.13;6337299;22;20118;-53
2021/09/22 00:31:42;;;;;;;2.45;1.02;;;;;;;9.41;100.00;101210.59;6338328;22;20022;-53
2021/09/22 00:34:45;;;;;;;1.70;1.27;;;;;;;9.48;100.00;101206.84;6338222;22;20516;-48
2021/09/22 00:37:48;;;;;;;4.78;1.35;;;;;;;9.49;100.00;101205.63;6338218;22;20026;-48
2021/09/22 00:40:51;;;;;;;11.05;1.77;;;;;;;9.45;100.00;101199.38;6338229;22;20026;-47
2021/09/22 00:43:54;;;;;;;3.50;1.30;;;;;;;9.39;100.00;101201.13;6340179;22;20083;-48
2021/09/22 00:46:57;;;;;;;6.35;1.73;;;;;;;9.34;100.00;101193.28;6339669;22;20395;-53
2021/09/22 00:50:02;;;;;;;7.70;1.63;;;;;;;9.32;100.00;101190.94;6339920;22;20071;-53
2021/09/22 00:53:06;;;;;;;4.07;2.08;;;;;;;9.27;100.00;101188.69;6339243;22;20021;-53
2021/09/22 00:56:09;;;;;;;2.97;1.73;;;;;;;9.24;100.00;101183.22;6339075;22;20022;-53
2021/09/22 00:59:12;;;;;;;1.85;1.25;;;;;;;9.20;100.00;101183.31;6339370;22;20026;-53
2021/09/22 01:02:17;;;;;;;1.55;1.27;;;;;;;9.22;100.00;101180.09;6339710;22;20053;-53
2021/09/22 01:05:24;;;;;;;5.45;2.08;;;;;;;9.20;100.00;101182.53;6339631;22;20025;-53
2021/09/22 01:08:31;;;;;;;2.25;1.45;;;;;;;9.17;100.00;101181.41;6320944;22;20084;-53
2021/09/22 01:11:35;;;;;;;2.38;1.27;;;;;;;9.09;100.00;101178.03;6339332;22;20026;-52
2021/09/22 01:14:38;;;;;;;10.40;2.15;;;;;;;9.02;100.00;101177.41;6319831;22;20061;-53
2021/09/22 01:17:41;;;;;;;1.00;1.00;;;;;;;9.02;100.00;101183.75;6338670;22;20079;-53
2021/09/22 01:20:47;;;;;;;2.55;2.10;;;;;;;8.98;100.00;101188.59;6338423;22;20026;-52
2021/09/22 01:23:50;;;;;;;2.42;1.02;;;;;;;8.97;100.00;101180.69;6339479;22;20022;-52
2021/09/22 01:26:53;;;;;;;9.10;2.35;;;;;;;8.95;100.00;101178.34;6339047;22;20040;-53
2021/09/22 01:29:56;;;;;;;6.35;1.45;;;;;;;8.96;100.00;101182.69;6339560;22;20102;-52
2021/09/22 01:33:05;;;;;;;3.58;1.23;;;;;;;8.96;100.00;101185.47;6320725;22;20040;-53
2021/09/22 01:36:11;;;;;;;2.05;0.75;;;;;;;8.86;100.00;101183.69;6339522;22;20030;-52
2021/09/22 01:39:14;;;;;;;1.40;0.95;;;;;;;8.80;100.00;101182.66;6339580;22;20107;-53
2021/09/22 01:42:18;;;;;;;3.70;1.58;;;;;;;8.76;100.00;101176.41;6339303;22;20026;-53
2021/09/22 01:45:23;;;;;;;2.47;0.75;;;;;;;8.76;100.00;101170.84;6339400;22;20552;-53
2021/09/22 01:48:26;;;;;;;1.95;1.55;;;;;;;8.76;100.00;101159.75;6339474;22;20022;-53
2021/09/22 01:51:30;;;;;;;9.93;2.20;;;;;;;8.72;100.00;101161.81;6339065;22;20067;-53
2021/09/22 01:54:33;;;;;;;3.17;0.88;;;;;;;8.75;100.00;101169.28;6339108;22;20029;-53
2021/09/22 01:57:36;;;;;;;8.60;2.33;;;;;;;8.79;100.00;101163.66;6339148;22;20017;-53
2021/09/22 02:00:39;;;;;;;3.85;1.20;;;;;;;8.79;100.00;101153.31;6338961;22;20340;-53
2021/09/22 02:03:43;;;;;;;4.88;1.88;;;;;;;8.77;100.00;101161.28;6338658;22;20391;-53
2021/09/22 02:06:45;;;;;;;5.07;1.65;;;;;;;8.79;100.00;101158.09;6318851;22;20086;-52
2021/09/22 02:09:48;;;;;;;3.40;1.83;;;;;;;8.81;100.00;101156.47;6338763;22;20107;-52
2021/09/22 02:12:51;;;;;;;10.02;1.95;;;;;;;8.87;100.00;101157.50;6339210;22;20450;-53
2021/09/22 02:15:54;;;;;;;3.33;1.35;;;;;;;8.95;100.00;101155.31;6319616;22;20409;-53
2021/09/22 02:18:56;;;;;;;9.63;1.85;;;;;;;8.98;100.00;101155.25;6339271;22;20099;-53
2021/09/22 02:21:59;;;;;;;3.58;1.55;;;;;;;8.99;100.00;101150.47;6338461;22;20071;-52
2021/09/22 02:25:04;;;;;;;3.35;1.60;;;;;;;8.99;100.00;101150.47;6339213;22;20038;-53
2021/09/22 02:28:07;;;;;;;9.82;2.10;;;;;;;8.93;100.00;101146.66;6339053;22;20098;-54
2021/09/22 02:31:10;;;;;;;1.63;1.52;;;;;;;8.88;100.00;101139.59;6339045;22;20021;-52
2021/09/22 02:34:14;;;;;;;6.47;1.42;;;;;;;8.85;100.00;101132.16;6339016;22;20095;-53
2021/09/22 02:37:17;;;;;;;1.85;0.88;;;;;;;8.77;100.00;101132.75;6339072;22;20021;-48
2021/09/22 02:40:20;;;;;;;4.47;1.52;;;;;;;8.67;100.00;101126.22;6338764;22;20473;-48
2021/09/22 02:43:24;;;;;;;1.00;0.85;;;;;;;8.60;100.00;101126.38;6338896;22;20079;-52
2021/09/22 02:46:27;;;;;;;9.07;1.95;;;;;;;8.55;100.00;101115.78;6338444;22;20098;-53
2021/09/22 02:49:30;;;;;;;1.35;1.25;;;;;;;8.55;100.00;101115.78;6338718;22;20107;-53
2021/09/22 02:52:33;;;;;;;1.45;1.35;;;;;;;8.51;100.00;101112.28;6338435;22;20457;-52
2021/09/22 02:55:36;;;;;;;4.10;1.42;;;;;;;8.49;100.00;101106.38;6338229;22;20079;-52
2021/09/22 02:58:39;;;;;;;1.65;0.98;;;;;;;8.49;100.00;101106.38;6338689;22;20076;-53
2021/09/22 03:01:42;;;;;;;1.75;1.60;;;;;;;8.46;100.00;101101.72;6338297;22;20049;-53
2021/09/22 03:04:45;;;;;;;5.10;1.25;;;;;;;8.49;100.00;101105.63;6338075;22;20025;-53
2021/09/22 03:07:48;;;;;;;2.28;1.30;;;;;;;8.56;100.00;101103.47;6338716;22;20025;-53
2021/09/22 03:10:50;;;;;;;6.07;1.30;;;;;;;8.67;100.00;101092.09;6338519;22;20049;-53
2021/09/22 03:13:53;;;;;;;5.40;1.55;;;;;;;8.76;100.00;101098.63;6338290;22;20030;-52
2021/09/22 03:16:57;;;;;;;7.47;1.13;;;;;;;8.80;100.00;101088.22;6338259;22;20083;-53
2021/09/22 03:19:59;;;;;;;2.42;1.23;;;;;;;8.86;100.00;101086.47;6338370;22;20461;-48
2021/09/22 03:23:02;;;;;;;11.63;2.17;;;;;;;8.90;100.00;101081.63;6338644;22;20042;-48
2021/09/22 03:26:06;;;;;;;10.45;2.13;;;;;;;8.94;100.00;101087.09;6338349;22;20068;-48
2021/09/22 03:29:09;;;;;;;8.43;2.35;;;;;;;8.96;100.00;101082.69;6338683;22;20075;-48
2021/09/22 03:32:12;;;;;;;1.65;1.00;;;;;;;9.01;100.00;101076.56;6338826;22;20377;-48
2021/09/22 03:35:15;;;;;;;7.05;1.77;;;;;;;8.99;100.00;101078.22;6319625;22;20072;-48
2021/09/22 03:38:19;;;;;;;2.10;1.27;;;;;;;8.98;100.00;101077.47;6338503;22;20038;-48
2021/09/22 03:41:22;;;;;;;6.47;1.40;;;;;;;9.00;100.00;101080.59;6338250;22;20463;-48
2021/09/22 03:44:25;;;;;;;1.42;0.65;;;;;;;8.92;100.00;101075.66;6338863;22;20026;-48
2021/09/22 03:47:28;;;;;;;2.38;1.08;;;;;;;8.88;100.00;101070.16;6338723;22;20077;-48
2021/09/22 03:50:31;;;;;;;4.28;1.38;;;;;;;8.88;100.00;101072.94;6338399;22;20026;-48
2021/09/22 03:53:34;;;;;;;9.35;1.75;;;;;;;8.86;100.00;101069.03;6318920;22;20090;-48
2021/09/22 03:56:37;;;;;;;2.67;1.10;;;;;;;8.89;100.00;101071.72;6338315;22;20018;-48
2021/09/22 03:59:40;;;;;;;2.55;1.73;;;;;;;8.94;100.00;101076.00;6337760;22;20075;-47
2021/09/22 04:02:43;;;;;;;13.68;2.95;;;;;;;9.02;100.00;101064.25;6338513;22;20026;-48
2021/09/22 04:05:46;;;;;;;3.38;0.85;;;;;;;9.09;100.00;101061.31;6338294;22;20053;-48
2021/09/22 04:08:50;;;;;;;5.15;1.70;;;;;;;9.11;100.00;101056.09;6338657;22;20037;-48
2021/09/22 04:11:53;;;;;;;4.60;1.38;;;;;;;9.14;100.00;101052.44;6338707;22;20072;-48
2021/09/22 04:14:56;;;;;;;1.20;1.05;;;;;;;9.20;100.00;101052.69;6338279;22;20095;-48
2021/09/22 04:17:58;;;;;;;8.05;2.33;;;;;;;9.28;100.00;101053.28;6340348;22;20022;-48
2021/09/22 04:21:02;;;;;;;8.30;1.75;;;;;;;9.33;100.00;101058.31;6340027;22;20072;-48
2021/09/22 04:24:05;;;;;;;11.23;2.13;;;;;;;9.41;100.00;101045.78;6339886;22;20105;-48
2021/09/22 04:27:08;;;;;;;4.18;1.58;;;;;;;9.42;100.00;101055.69;6339696;22;20051;-48
2021/09/22 04:30:11;;;;;;;3.63;1.13;;;;;;;9.49;100.00;101058.25;6339214;22;20029;-48
2021/09/22 04:33:15;;;;;;;14.00;1.88;;;;;;;9.46;100.00;101056.38;6340065;22;20025;-48
2021/09/22 04:36:18;;;;;;;4.55;1.35;;;;;;;9.44;100.00;101064.38;6340059;22;20025;-48
2021/09/22 04:39:21;;;;;;;3.83;1.05;;;;;;;9.51;100.00;101064.16;6340066;22;20065;-48
2021/09/22 04:42:24;;;;;;;2.72;1.70;;;;;;;9.57;100.00;101063.19;6340220;22;20022;-48
2021/09/22 04:45:28;;;;;;;11.32;1.50;;;;;;;9.70;100.00;101074.38;6339769;22;20022;-48
2021/09/22 04:48:31;;;;;;;3.05;2.20;;;;;;;9.74;100.00;101066.69;6339913;22;20076;-48
2021/09/22 04:51:34;;;;;;;12.80;1.20;;;;;;;9.74;100.00;101066.69;6320569;22;20026;-48
2021/09/22 04:54:37;;;;;;;2.25;1.50;;;;;;;9.70;100.00;101060.47;6339757;22;20397;-48
2021/09/22 04:57:41;;;;;;;7.38;1.75;;;;;;;9.69;100.00;101068.03;6339627;22;20068;-48
2021/09/22 05:00:43;;;;;;;8.25;1.20;;;;;;;9.72;100.00;101064.34;6339750;22;20079;-48
2021/09/22 05:03:46;;;;;;;6.38;2.65;;;;;;;9.75;100.00;101051.56;6339354;22;20072;-48
2021/09/22 05:06:50;;;;;;;5.25;2.95;;;;;;;9.77;100.00;101049.13;6339444;22;20025;-48
2021/09/22 05:09:53;;;;;;;9.18;2.05;;;;;;;9.88;100.00;101052.38;6339417;22;20022;-48
2021/09/22 05:12:56;;;;;;;4.80;1.38;;;;;;;9.94;100.00;101047.81;6339828;22;20022;-48
2021/09/22 05:15:59;;;;;;;9.57;2.25;;;;;;;9.93;100.00;101047.06;6339113;22;20518;-48
2021/09/22 05:19:01;;;;;;;4.97;1.65;;;;;;;9.96;100.00;101052.97;6339387;22;20072;-48
2021/09/22 05:22:04;;;;;;;7.00;1.65;;;;;;;10.00;100.00;101037.72;6339170;22;20025;-48
2021/09/22 05:25:08;;;;;;;12.55;1.75;;;;;;;10.05;100.00;101048.28;6339634;22;20203;-48
2021/09/22 05:28:11;;;;;;;11.05;2.05;;;;;;;10.06;100.00;101049.84;6338498;22;20025;-48
2021/09/22 05:31:14;;;;;;;7.53;1.23;;;;;;;10.15;100.00;101047.25;6339650;22;20025;-48
2021/09/22 05:34:17;;;;;;;2.30;1.30;;;;;;;10.24;100.00;101044.56;6339173;22;20068;-48
2021/09/22 05:37:20;;;;;;;8.07;2.65;;;;;;;10.24;100.00;101050.16;6339011;22;20458;-48
2021/09/22 05:40:24;;;;;;;13.45;3.63;;;;;;;10.27;100.00;101054.81;6338842;22;20025;-48
2021/09/22 05:43:27;;;;;;;2.28;2.08;;;;;;;10.31;100.00;101055.47;6339503;22;20022;-48
2021/09/22 05:46:30;;;;;;;6.78;1.33;;;;;;;10.37;100.00;101050.91;6338919;22;20022;-48
2021/09/22 05:49:33;;;;;;;5.13;1.48;;;;;;;10.43;100.00;101057.50;6339234;22;20098;-48
2021/09/22 05:52:36;;;;;;;6.68;1.45;;;;;;;10.44;100.00;101056.25;6338860;22;20076;-48
2021/09/22 05:55:38;;;;;;;2.60;1.48;;;;;;;10.44;100.00;101059.03;6339312;22;20029;-48
2021/09/22 05:58:41;;;;;;;7.63;2.15;;;;;;;10.49;100.00;101066.84;6319909;22;20018;-48
2021/09/22 06:01:44;;;;;;;3.28;1.85;;;;;;;10.50;100.00;101067.66;6339030;22;20086;-48
2021/09/22 06:04:47;;;;;;;3.38;1.08;;;;;;;10.59;100.00;101059.38;6338762;22;20026;-48
2021/09/22 06:07:50;;;;;;;1.20;1.10;;;;;;;10.56;100.00;101066.63;6338424;22;20049;-48
2021/09/22 06:10:53;;;;;;;11.63;1.27;;;;;;;10.57;100.00;101065.41;6338793;22;20025;-48
2021/09/22 06:13:56;;;;;;;9.27;2.38;;;;;;;10.57;100.00;101061.81;6338220;22;20029;-48
2021/09/22 06:17:00;;;;;;;8.25;1.67;;;;;;;10.58;100.00;101075.31;6337990;22;20418;-48
2021/09/22 06:20:03;;;;;;;8.07;1.17;;;;;;;10.56;100.00;101066.63;6338591;22;20025;-48
2021/09/22 06:23:06;;;;;;;4.18;2.22;;;;;;;10.53;100.00;101067.53;6338549;22;20026;-48
2021/09/22 06:26:09;;;;;;;13.77;2.05;;;;;;;10.43;100.00;101059.50;6338437;22;20097;-48
2021/09/22 06:29:13;;;;;;;3.22;1.92;;;;;;;10.43;100.00;101060.28;6337591;22;20063;-48
2021/09/22 06:32:16;;;;;;;3.28;1.38;;;;;;;10.40;100.00;101063.94;6338123;22;20338;-48
2021/09/22 06:35:20;;;;;;;2.45;1.35;;;;;;;10.38;100.00;101060.84;6338128;22;20095;-47
2021/09/22 06:38:22;;;;;;;3.67;1.08;;;;;;;10.44;100.00;101075.75;6338399;22;20034;-48
2021/09/22 06:41:29;;;;;;;14.57;2.00;;;;;;;10.45;100.00;101066.19;6338387;22;20025;-48
2021/09/22 06:44:33;;;;;;;3.22;1.40;;;;;;;10.56;100.00;101055.50;6338041;22;20459;-48
2021/09/22 06:47:37;;;;;;;10.23;3.72;;;;;;;10.59;100.00;101060.16;6338069;22;20088;-48
2021/09/22 06:50:40;;;;;;;11.05;3.58;;;;;;;10.68;100.00;101060.28;6338264;22;20316;-48
2021/09/22 06:53:43;;;;;;;12.90;1.75;;;;;;;10.89;100.00;101060.81;6338463;22;20030;-48
2021/09/22 06:56:46;;;;;;;14.88;4.72;;;;;;;10.98;100.00;101053.31;6338924;22;20033;-48
2021/09/22 06:59:49;;;;;;;7.68;3.58;;;;;;;10.97;100.00;101053.75;6338150;22;20026;-48
2021/09/22 07:02:53;;;;;;;12.68;3.25;;;;;;;11.00;100.00;101061.25;6319695;22;20025;-48
2021/09/22 07:05:57;;;;;;;8.25;3.78;;;;;;;11.01;100.00;101057.22;6338632;22;20077;-48
2021/09/22 07:23:30;;;;;;;8.32;3.40;;;;;;;11.20;100.00;101070.09;5108455;27;20386;-46
2021/09/22 07:26:33;;;;;;;6.40;2.65;;;;;;;11.24;100.00;101070.78;5096766;28;20042;-46
2021/09/22 07:29:36;;;;;;;3.60;2.42;;;;;;;11.23;100.00;101069.22;5109237;28;20043;-48
2021/09/22 07:32:42;;;;;;;5.82;1.95;;;;;;;11.35;100.00;101060.78;5087358;28;20089;-46
2021/09/22 07:35:47;;;;;;;5.43;1.33;;;;;;;11.47;100.00;101056.41;5088658;28;20392;-48
2021/09/22 07:38:51;;;;;;;8.05;2.53;;;;;;;11.57;100.00;101049.66;5076892;28;20071;-46
2021/09/22 07:41:55;;;;;;;3.83;2.53;;;;;;;11.72;100.00;101050.72;5089390;28;20036;-47
2021/09/22 07:44:58;;;;;;;7.25;2.38;;;;;;;11.85;100.00;101054.25;5089062;28;20085;-49
2021/09/22 07:48:02;;;;;;;7.18;2.85;;;;;;;11.54;100.00;101061.75;5077001;28;20438;-48
2021/09/22 07:51:05;;;;;;;10.23;3.30;;;;;;;12.07;100.00;101066.16;5088914;28;20051;-47
2021/09/22 07:54:08;;;;;;;8.38;2.95;;;;;;;12.32;100.00;101053.28;5088749;28;20063;-47
2021/09/22 07:57:12;;;;;;;1.85;1.48;;;;;;;12.53;100.00;101047.63;5088733;28;20055;-47
2021/09/22 08:00:15;;;;;;;3.55;1.63;;;;;;;12.75;100.00;101055.94;5088451;28;20197;-47
2021/09/22 08:03:18;;;;;;;17.85;2.83;;;;;;;12.92;100.00;101054.41;5088965;28;20545;-47
2021/09/22 08:06:23;;;;;;;3.00;1.17;;;;;;;13.19;100.00;101051.69;5088702;28;20035;-47
2021/09/22 08:09:26;;;;;;;12.98;1.52;;;;;;;13.44;100.00;101047.81;5073243;28;20039;-47
2021/09/22 08:12:29;;;;;;;3.03;1.48;;;;;;;13.55;100.00;101048.94;5088789;28;20052;-47
2021/09/22 08:15:32;;;;;;;4.47;1.98;;;;;;;13.60;100.00;101039.88;5091540;28;20039;-46
2021/09/22 08:18:35;;;;;;;3.85;2.25;;;;;;;13.70;100.00;101037.88;5109382;28;20108;-47
2021/09/22 08:21:38;;;;;;;5.82;2.30;;;;;;;13.83;100.00;101046.09;5098838;28;20117;-46
2021/09/22 08:24:41;;;;;;;17.05;4.15;;;;;;;13.94;100.00;101038.75;5075226;28;20043;-47
2021/09/22 08:27:44;;;;;;;9.43;2.72;;;;;;;14.07;100.00;101038.56;5075477;28;20135;-47
2021/09/22 08:30:46;;;;;;;9.57;3.92;;;;;;;14.07;100.00;101032.97;5075527;28;20186;-47
2021/09/22 08:33:50;;;;;;;4.85;1.50;;;;;;;14.16;100.00;101024.53;5075328;28;20102;-46
2021/09/22 08:36:53;;;;;;;2.83;1.45;;;;;;;14.31;100.00;101031.81;5075546;28;20455;-46
2021/09/22 08:39:56;;;;;;;2.63;0.93;;;;;;;14.45;100.00;101035.97;5075217;28;20407;-47
2021/09/22 08:42:59;;;;;;;2.53;1.33;;;;;;;14.55;100.00;101037.50;5075117;28;20043;-46
2021/09/22 08:46:02;;;;;;;3.10;1.15;;;;;;;14.73;100.00;101037.41;5082202;28;20043;-47
2021/09/22 08:49:06;;;;;;;3.40;0.73;;;;;;;15.05;100.00;101050.59;5094683;28;20082;-47
2021/09/22 08:52:09;;;;;;;8.50;0.98;;;;;;;15.37;100.00;101049.00;5095281;28;20043;-47
2021/09/22 08:55:13;;;;;;;2.83;0.98;;;;;;;15.53;100.00;101045.75;5095582;28;20101;-47
2021/09/22 08:58:16;;;;;;;1.60;0.95;;;;;;;15.65;100.00;101041.13;5095099;28;20065;-47
2021/09/22 09:01:21;;;;;;;6.32;1.30;;;;;;;15.80;100.00;101042.72;5095149;28;20051;-47
2021/09/22 09:04:25;;;;;;;2.63;1.45;;;;;;;15.99;100.00;101034.09;5094787;28;20078;-47
2021/09/22 09:07:31;;;;;;;3.03;1.08;;;;;;;16.27;100.00;101040.94;5073142;28;20529;-47
2021/09/22 09:10:35;;;;;;;1.33;0.50;;;;;;;16.39;100.00;101032.22;5074582;28;20043;-47
2021/09/22 09:13:49;;;;;;;2.70;0.90;;;;;;;16.45;100.00;101030.28;5062533;28;20128;-47
2021/09/22 09:16:53;;;;;;;6.63;2.50;;;;;;;16.54;100.00;101033.00;5074402;28;20082;-47
2021/09/22 09:19:57;;;;;;;2.85;0.40;;;;;;;16.60;100.00;101033.09;5062330;28;20048;-47
2021/09/22 09:23:00;;;;;;;13.93;0.70;;;;;;;16.61;100.00;101026.97;5061940;28;20124;-47
2021/09/22 09:26:04;;;;;;;0.88;0.30;;;;;;;16.56;100.00;101019.22;5074549;28;20079;-47
2021/09/22 09:29:07;;;;;;;2.03;0.50;;;;;;;16.51;100.00;101017.09;5074356;28;20055;-47
2021/09/22 09:32:15;;;;;;;1.15;0.57;;;;;;;16.46;100.00;101026.19;5074425;28;20067;-47
2021/09/22 09:35:20;;;;;;;2.67;0.65;;;;;;;16.65;100.00;101026.78;5073194;28;20043;-47
2021/09/22 09:38:31;;;;;;;2.67;0.70;;;;;;;16.79;100.00;101025.16;5074288;28;20097;-47
2021/09/22 09:41:48;;;;;;;1.15;0.70;;;;;;;16.82;100.00;101010.91;5074092;28;20054;-47
2021/09/22 09:44:56;;;;;;;1.02;0.57;;;;;;;17.03;100.00;101018.09;5074326;28;20043;-46
2021/09/22 09:48:05;;;;;;;1.17;0.30;;;;;;;17.43;100.00;101015.25;5074109;28;20083;-47
2021/09/22 09:51:11;;;;;;;3.25;0.55;;;;;;;17.90;100.00;101013.97;5073845;28;20039;-47
2021/09/22 09:54:26;;;;;;;1.65;0.28;;;;;;;18.14;100.00;101019.31;5073701;28;20044;-48
2021/09/22 09:57:29;;;;;;;2.45;0.20;;;;;;;18.44;100.00;101011.34;5073562;28;20047;-48
2021/09/22 10:00:38;;;;;;;2.83;0.28;;;;;;;18.71;100.00;101005.16;5073614;28;20171;-47
2021/09/22 10:03:44;;;;;;;2.28;0.57;;;;;;;18.93;100.00;101005.25;5073715;28;20408;-48
2021/09/22 10:06:48;;;;;;;0.80;0.10;;;;;;;18.93;100.00;100993.97;5073233;28;20051;-48
2021/09/22 10:09:52;;;;;;;0.40;0.40;;;;;;;19.00;100.00;100987.84;5073520;28;20059;-47
2021/09/22 10:12:56;;;;;;;3.00;0.15;;;;;;;19.16;100.00;100989.19;5073510;28;20059;-47
2021/09/22 10:16:01;;;;;;;0.52;0.20;;;;;;;19.23;100.00;100978.16;5073636;28;20046;-47
2021/09/22 10:19:06;;;;;;;1.35;0.20;;;;;;;19.40;100.00;100981.88;5073387;28;20055;-48
2021/09/22 10:22:10;;;;;;;0.10;0.00;;;;;;;19.32;100.00;100980.78;5082894;28;20055;-48
2021/09/22 10:25:16;;;;;;;2.58;0.32;;;;;;;19.27;100.00;100973.06;5093581;28;20480;-48
2021/09/22 10:28:41;;;;;;;2.15;0.30;;;;;;;19.17;100.00;100980.22;5093374;28;20055;-48
2021/09/22 10:31:43;;;;;;;1.35;0.28;;;;;;;19.16;100.00;100970.22;5093491;28;20050;-48
2021/09/22 10:34:46;;;;;;;0.15;0.00;;;;;;;19.40;100.00;100964.16;5093758;28;20113;-48
2021/09/22 10:37:50;;;;;;;1.45;0.15;;;;;;;19.45;100.00;100978.28;5092895;28;20093;-48
2021/09/22 10:40:55;;;;;;;3.60;0.20;;;;;;;19.56;100.00;100967.00;5093099;28;20526;-48
2021/09/22 10:43:59;;;;;;;0.20;0.10;;;;;;;19.64;100.00;100962.38;5093408;28;20038;-47
2021/09/22 10:47:25;;;;;;;0.00;0.00;;;;;;;19.52;100.00;100962.88;5092880;28;20066;-47
2021/09/22 10:50:49;;;;;;;0.20;0.10;;;;;;;19.52;100.00;100955.19;5093413;28;20128;-47
2021/09/22 10:54:08;;;;;;;0.03;0.00;;;;;;;19.66;100.00;100959.06;5092973;28;20051;-48
2021/09/22 10:57:15;;;;;;;0.10;0.00;;;;;;;19.76;100.00;100956.75;5092660;28;20043;-48
2021/09/22 11:00:21;;;;;;;0.00;0.00;;;;;;;19.79;100.00;100950.06;5093244;28;20449;-48
2021/09/22 11:03:43;;;;;;;0.10;0.10;;;;;;;19.83;100.00;100947.75;5093142;28;20082;-48
2021/09/22 11:06:49;;;;;;;0.10;0.10;;;;;;;19.97;100.00;100952.38;5089739;28;20043;-48
2021/09/22 11:09:56;;;;;;;0.00;0.00;;;;;;;20.03;100.00;100941.84;5071344;28;20106;-48
2021/09/22 11:13:22;;;;;;;0.35;0.35;;;;;;;19.94;100.00;100944.94;5072644;28;20048;-48
2021/09/22 11:16:26;;;;;;;0.32;0.10;;;;;;;19.92;100.00;100924.88;5072993;28;20063;-48
2021/09/22 11:19:30;;;;;;;1.38;0.10;;;;;;;19.98;100.00;100922.81;5072921;28;20082;-47
2021/09/22 11:22:35;;;;;;;0.77;0.22;;;;;;;20.06;100.00;100912.53;5072557;28;20052;-48
2021/09/22 11:25:38;;;;;;;0.50;0.22;;;;;;;20.18;100.00;100917.66;5072522;28;20038;-48
2021/09/22 11:28:50;;;;;;;0.30;0.00;;;;;;;20.34;100.00;100916.88;5072306;28;20546;-48
2021/09/22 11:31:53;;;;;;;0.20;0.10;;;;;;;20.39;100.00;100906.84;5072693;28;20090;-49
2021/09/22 11:35:16;;;;;;;0.65;0.00;;;;;;;20.32;100.00;100901.72;5072855;28;20495;-49
2021/09/22 11:38:20;;;;;;;2.78;0.10;;;;;;;20.31;100.00;100905.84;5072629;28;20093;-49
2021/09/22 11:41:23;;;;;;;0.10;0.10;;;;;;;20.55;100.00;100896.78;5072996;28;20146;-49
2021/09/22 11:44:31;;;;;;;0.35;0.15;;;;;;;20.63;100.00;100900.59;5072627;28;20102;-49
2021/09/22 11:47:34;;;;;;;0.10;0.10;;;;;;;20.62;100.00;100897.00;5072248;28;20078;-49
2021/09/22 11:50:46;;;;;;;0.85;0.30;;;;;;;20.81;100.00;100891.53;5072496;28;20423;-49
2021/09/22 11:53:50;;;;;;;2.22;0.20;;;;;;;20.84;100.00;100885.56;5072929;28;20047;-49
2021/09/22 11:57:03;;;;;;;0.98;0.22;;;;;;;20.80;100.00;100885.09;5071948;28;20703;-49
2021/09/22 12:00:17;;;;;;;0.10;0.10;;;;;;;20.71;100.00;100876.88;5063392;28;20054;-49
2021/09/22 12:03:23;;;;;;;0.47;0.10;;;;;;;20.73;100.00;100865.81;5062527;28;20364;-49
2021/09/22 12:06:27;;;;;;;0.35;0.20;;;;;;;20.72;100.00;100867.13;5075301;28;20067;-49
2021/09/22 12:09:39;;;;;;;2.75;0.32;;;;;;;20.74;100.00;100870.19;5074231;28;20496;-49
2021/09/22 12:12:42;;;;;;;0.95;0.20;;;;;;;20.69;100.00;100862.50;5075856;28;20094;-49
2021/09/22 12:15:45;;;;;;;1.15;0.38;;;;;;;20.56;100.00;100865.13;5075962;28;20056;-49
2021/09/22 12:18:56;;;;;;;0.20;0.10;;;;;;;20.61;100.00;100855.06;5075984;28;20373;-49
2021/09/22 12:22:00;;;;;;;0.17;0.10;;;;;;;20.80;100.00;100859.59;5075838;28;20071;-49
2021/09/22 12:25:05;;;;;;;2.22;0.32;;;;;;;20.88;100.00;100857.75;5075853;28;20451;-49
2021/09/22 12:28:17;;;;;;;0.82;0.13;;;;;;;20.97;100.00;100846.13;5075935;28;20083;-49
2021/09/22 12:31:21;;;;;;;0.68;0.30;;;;;;;20.96;100.00;100843.81;5075567;28;20043;-49
2021/09/22 12:34:26;;;;;;;0.55;0.10;;;;;;;20.88;100.00;100829.44;5075039;28;20090;-49
2021/09/22 12:37:31;;;;;;;0.55;0.10;;;;;;;21.00;100.00;100810.31;5075073;28;20058;-49
2021/09/22 12:40:42;;;;;;;0.25;0.00;;;;;;;21.13;100.00;100799.19;5075480;28;20401;-49
2021/09/22 12:43:47;;;;;;;1.00;0.20;;;;;;;21.03;100.00;100795.91;5075430;28;20178;-49
2021/09/22 12:46:51;;;;;;;0.68;0.20;;;;;;;20.91;100.00;100791.59;5075263;28;20145;-49
2021/09/22 12:50:30;;;;;;;0.57;0.28;;;;;;;20.72;100.00;100782.19;5071620;28;20046;-49
2021/09/22 12:53:33;;;;;;;0.10;0.00;;;;;;;20.64;100.00;100792.50;5064328;28;20075;-49
2021/09/22 12:56:38;;;;;;;1.75;0.00;;;;;;;20.66;100.00;100806.91;5043524;28;20256;-47
2021/09/22 12:59:42;;;;;;;0.20;0.00;;;;;;;20.80;100.00;100805.81;5041056;28;20106;-54
2021/09/22 13:02:46;;;;;;;0.75;0.20;;;;;;;20.70;100.00;100800.97;5070134;28;20059;-53
2021/09/22 13:05:55;;;;;;;0.75;0.10;;;;;;;20.40;100.00;100798.03;5054215;28;20161;-47
2021/09/22 13:09:01;;;;;;;1.83;0.17;;;;;;;20.31;100.00;100804.00;5053291;28;20131;-52
2021/09/22 13:12:05;;;;;;;1.63;0.20;;;;;;;20.57;100.00;100787.41;5053564;28;20044;-53
2021/09/22 13:15:23;;;;;;;5.45;0.32;;;;;;;21.04;100.00;100786.13;5053886;28;20048;-53
2021/09/22 13:18:27;;;;;;;4.78;1.27;;;;;;;21.25;100.00;100777.19;5054445;28;20060;-54
2021/09/22 13:21:31;;;;;;;5.63;1.42;;;;;;;21.29;100.00;100766.38;5053920;28;20093;-54
2021/09/22 13:24:34;;;;;;;2.08;0.20;;;;;;;21.45;100.00;100779.59;5054618;28;20139;-54
2021/09/22 13:27:37;;;;;;;7.25;0.55;;;;;;;21.53;100.00;100784.16;5054020;28;20166;-54
2021/09/22 13:30:40;;;;;;;2.50;0.22;;;;;;;21.55;100.00;100772.31;5054355;28;20047;-53
2021/09/22 13:33:44;;;;;;;2.92;0.30;;;;;;;21.20;100.00;100778.03;5053909;28;20048;-53
2021/09/22 13:36:48;;;;;;;2.92;0.22;;;;;;;21.12;100.00;100786.31;5070270;28;20043;-49
2021/09/22 13:39:50;;;;;;;0.68;0.40;;;;;;;20.96;100.00;100779.44;5073628;28;20404;-48
2021/09/22 13:42:53;;;;;;;3.13;0.55;;;;;;;20.75;100.00;100764.13;5072786;28;20137;-48
2021/09/22 13:45:56;;;;;;;1.85;0.30;;;;;;;20.69;100.00;100752.06;5073319;28;20056;-48
2021/09/22 13:48:59;;;;;;;2.10;0.43;;;;;;;20.76;100.00;100748.69;5073701;28;20051;-48
2021/09/22 13:52:02;;;;;;;0.95;0.30;;;;;;;20.68;100.00;100753.34;5073907;28;20043;-49
2021/09/22 13:55:06;;;;;;;0.70;0.20;;;;;;;20.70;100.00;100739.47;5073150;28;20039;-49
2021/09/22 13:58:09;;;;;;;0.40;0.10;;;;;;;20.71;100.00;100729.69;5073596;28;20047;-49
2021/09/22 14:01:13;;;;;;;0.38;0.22;;;;;;;20.93;100.00;100729.53;5073587;28;20043;-49
2021/09/22 14:04:19;;;;;;;0.93;0.47;;;;;;;20.99;100.00;100730.25;5073242;28;20087;-49
2021/09/22 14:07:22;;;;;;;0.85;0.30;;;;;;;21.16;100.00;100730.13;5073086;28;20059;-49
2021/09/22 14:10:25;;;;;;;0.35;0.22;;;;;;;21.42;100.00;100713.41;5072674;28;20043;-49
2021/09/22 14:13:27;;;;;;;0.93;0.17;;;;;;;21.82;100.00;100723.84;5072292;28;20062;-49
2021/09/22 14:16:30;;;;;;;0.75;0.30;;;;;;;22.14;100.00;100717.53;5072983;28;20051;-49
2021/09/22 14:19:33;;;;;;;2.53;0.32;;;;;;;22.10;100.00;100731.25;5073482;28;20079;-49
2021/09/22 14:22:36;;;;;;;0.70;0.22;;;;;;;22.22;100.00;100719.22;5072679;28;20129;-49
2021/09/22 14:25:42;;;;;;;0.73;0.20;;;;;;;22.10;100.00;100714.22;5073285;28;20055;-49